createdAt,value
2022-10-16T00:01:34.376Z,1.00
2022-10-16T00:04:01.773Z,1.00
2022-10-16T00:06:29.740Z,1.00
2022-10-16T00:08:57.416Z,1.00
2022-10-16T00:11:27.275Z,1.00
2022-10-16T00:13:58.017Z,1.00
2022-10-16T00:16:25.258Z,99.90
2022-10-16T00:18:52.391Z,99.90
2022-10-16T00:21:23.557Z,99.90
2022-10-16T00:23:56.350Z,99.90
2022-10-16T00:26:23.827Z,99.90
2022-10-16T00:28:52.082Z,99.90
2022-10-16T00:31:21.659Z,99.90
2022-10-16T00:33:49.789Z,1.00
2022-10-16T00:36:19.787Z,99.90
2022-10-16T00:38:47.218Z,99.90
2022-10-16T00:41:17.471Z,99.90
2022-10-16T00:43:47.355Z,99.90
2022-10-16T00:46:31.118Z,99.90
2022-10-16T00:48:58.358Z,99.90
2022-10-16T00:51:32.313Z,99.90
2022-10-16T00:54:00.075Z,99.90
2022-10-16T00:56:27.484Z,99.90
2022-10-16T00:58:54.806Z,99.90
2022-10-16T01:01:22.373Z,99.90
2022-10-16T01:03:49.586Z,99.90
2022-10-16T01:06:28.855Z,99.90
2022-10-16T01:09:22.199Z,99.90
2022-10-16T01:12:02.031Z,54.90
2022-10-16T01:14:49.365Z,8.70
2022-10-16T01:17:44.648Z,1.00
2022-10-16T01:20:25.707Z,1.00
2022-10-16T01:23:07.776Z,1.00
2022-10-16T01:26:05.864Z,1.00
2022-10-16T01:28:45.340Z,1.00
2022-10-16T01:31:18.255Z,1.00
2022-10-16T01:33:51.933Z,1.00
2022-10-16T01:36:32.177Z,1.00
2022-10-16T01:39:03.014Z,1.00
2022-10-16T01:41:38.088Z,1.00
2022-10-16T01:44:18.435Z,1.00
2022-10-16T01:46:48.578Z,1.00
2022-10-16T01:49:17.053Z,1.00
2022-10-16T01:51:48.527Z,1.00
2022-10-16T01:54:17.546Z,99.90
2022-10-16T01:56:45.511Z,99.90
2022-10-16T01:59:16.711Z,99.90
2022-10-16T02:01:49.782Z,99.90
2022-10-16T02:04:28.068Z,99.90
2022-10-16T02:06:55.816Z,99.90
2022-10-16T02:09:23.130Z,1.00
2022-10-16T02:11:54.856Z,1.00
2022-10-16T02:14:25.663Z,1.00
2022-10-16T02:16:53.064Z,1.00
2022-10-16T02:19:21.663Z,1.00
2022-10-16T02:21:58.471Z,1.00
2022-10-16T02:24:34.751Z,1.00
2022-10-16T02:27:06.952Z,1.00
2022-10-16T02:29:38.771Z,1.00
2022-10-16T02:32:08.719Z,1.00
2022-10-16T02:34:37.337Z,1.00
2022-10-16T02:37:06.273Z,1.00
2022-10-16T02:39:34.676Z,1.00
2022-10-16T02:42:02.297Z,1.00
2022-10-16T02:44:29.550Z,1.00
2022-10-16T02:46:56.639Z,1.00
2022-10-16T02:49:23.787Z,1.00
2022-10-16T02:51:50.911Z,1.00
2022-10-16T02:54:18.099Z,1.00
2022-10-16T02:56:45.219Z,1.00
2022-10-16T02:59:12.344Z,1.00
2022-10-16T03:01:39.484Z,1.00
2022-10-16T03:04:06.711Z,1.00
2022-10-16T03:06:34.070Z,1.00
2022-10-16T03:09:01.230Z,1.00
2022-10-16T03:11:29.206Z,1.00
2022-10-16T03:13:56.292Z,1.00
2022-10-16T03:16:23.391Z,1.00
2022-10-16T03:18:50.960Z,1.00
2022-10-16T03:21:18.216Z,1.00
2022-10-16T03:23:45.384Z,9.00
2022-10-16T03:26:12.496Z,99.90
2022-10-16T03:28:39.759Z,99.90
2022-10-16T03:31:06.955Z,99.90
2022-10-16T03:33:34.097Z,99.90
2022-10-16T03:36:01.370Z,99.90
2022-10-16T03:38:28.477Z,99.90
2022-10-16T03:40:55.584Z,99.90
2022-10-16T03:43:22.732Z,99.90
2022-10-16T03:45:52.517Z,99.90
2022-10-16T03:48:20.711Z,99.90
2022-10-16T03:50:49.377Z,99.90
2022-10-16T03:53:17.015Z,99.90
2022-10-16T03:55:44.451Z,99.90
2022-10-16T03:58:12.398Z,99.90
2022-10-16T04:00:43.935Z,99.90
2022-10-16T04:03:12.119Z,99.90
2022-10-16T04:05:40.659Z,99.90
2022-10-16T04:08:07.831Z,99.90
2022-10-16T04:10:34.943Z,99.90
2022-10-16T04:13:02.116Z,99.90
2022-10-16T04:15:29.282Z,99.90
2022-10-16T04:17:56.449Z,99.90
2022-10-16T04:20:23.715Z,99.90
2022-10-16T04:22:50.844Z,99.90
2022-10-16T04:25:17.926Z,99.90
2022-10-16T04:27:46.141Z,99.90
2022-10-16T04:30:14.253Z,99.90
2022-10-16T04:32:42.075Z,99.90
2022-10-16T04:35:09.681Z,99.90
2022-10-16T04:37:36.781Z,99.90
2022-10-16T04:40:04.376Z,99.90
2022-10-16T04:42:31.459Z,99.90
2022-10-16T04:44:58.630Z,99.90
2022-10-16T04:47:25.985Z,99.90
2022-10-16T04:49:53.247Z,99.90
2022-10-16T04:52:22.451Z,99.90
2022-10-16T04:54:51.249Z,99.90
2022-10-16T04:57:18.748Z,99.90
2022-10-16T04:59:45.941Z,99.90
2022-10-16T05:02:13.087Z,99.90
2022-10-16T05:04:40.338Z,99.90
2022-10-16T05:07:07.552Z,99.90
2022-10-16T05:09:34.664Z,99.90
2022-10-16T05:12:01.791Z,99.90
2022-10-16T05:14:28.956Z,99.90
2022-10-16T05:16:56.151Z,99.90
2022-10-16T05:19:27.352Z,99.90
2022-10-16T05:21:55.119Z,99.90
2022-10-16T05:24:22.285Z,99.90
2022-10-16T05:26:49.456Z,99.90
2022-10-16T05:29:16.626Z,99.90
2022-10-16T05:31:43.866Z,99.90
2022-10-16T05:34:11.263Z,99.90
2022-10-16T05:36:38.432Z,99.90
2022-10-16T05:39:05.579Z,99.90
2022-10-16T05:41:32.867Z,99.90
2022-10-16T05:43:59.983Z,99.90
2022-10-16T05:46:27.120Z,99.90
2022-10-16T05:48:54.408Z,99.90
2022-10-16T05:51:21.607Z,99.90
2022-10-16T05:53:48.731Z,99.90
2022-10-16T05:56:16.155Z,99.90
2022-10-16T05:58:45.198Z,99.90
2022-10-16T06:01:17.913Z,99.90
2022-10-16T06:03:45.416Z,99.90
2022-10-16T06:06:17.741Z,1.00
2022-10-16T06:08:48.871Z,1.00
2022-10-16T06:11:22.132Z,99.90
2022-10-16T06:13:53.947Z,1.00
2022-10-16T06:16:21.482Z,94.90
2022-10-16T06:18:48.618Z,1.00
2022-10-16T06:21:19.590Z,1.00
2022-10-16T06:23:47.155Z,1.00
2022-10-16T06:26:17.190Z,1.00
2022-10-16T06:28:44.665Z,70.70
2022-10-16T06:31:12.872Z,99.90
2022-10-16T06:33:40.948Z,99.90
2022-10-16T06:36:10.540Z,99.90
2022-10-16T06:38:38.824Z,99.90
2022-10-16T06:41:07.436Z,99.90
2022-10-16T06:43:37.722Z,99.90
2022-10-16T06:46:08.712Z,1.00
2022-10-16T06:48:36.224Z,99.90
2022-10-16T06:51:10.388Z,99.90
2022-10-16T06:53:54.588Z,1.00
2022-10-16T06:56:28.664Z,99.90
2022-10-16T06:58:56.441Z,1.00
2022-10-16T07:01:25.151Z,1.00
2022-10-16T07:03:53.376Z,1.00
2022-10-16T07:06:22.603Z,1.00
2022-10-16T07:08:50.063Z,99.90
2022-10-16T07:11:19.687Z,1.00
2022-10-16T07:13:51.068Z,1.00
2022-10-16T07:16:24.900Z,1.00
2022-10-16T07:18:55.413Z,1.00
2022-10-16T07:21:23.965Z,99.90
2022-10-16T07:24:02.308Z,99.90
2022-10-16T07:26:32.096Z,1.00
2022-10-16T07:28:59.476Z,1.00
2022-10-16T07:31:26.663Z,1.00
2022-10-16T07:33:54.215Z,99.90
2022-10-16T07:36:22.175Z,99.90
2022-10-16T07:38:51.031Z,99.90
2022-10-16T07:41:21.067Z,99.90
2022-10-16T07:43:53.513Z,99.90
2022-10-16T07:46:22.516Z,99.90
2022-10-16T07:48:50.041Z,99.90
2022-10-16T07:51:19.808Z,99.90
2022-10-16T07:53:47.963Z,99.90
2022-10-16T07:56:16.237Z,99.90
2022-10-16T07:58:44.101Z,96.40
2022-10-16T08:01:14.706Z,92.80
2022-10-16T08:03:47.351Z,93.80
2022-10-16T08:06:15.243Z,91.30
2022-10-16T08:08:42.538Z,91.80
2022-10-16T08:11:09.868Z,89.20
2022-10-16T08:13:39.846Z,89.40
2022-10-16T08:16:10.873Z,88.80
2022-10-16T08:18:40.110Z,90.10
2022-10-16T08:21:09.236Z,85.70
2022-10-16T08:23:36.517Z,84.20
2022-10-16T08:26:07.178Z,80.90
2022-10-16T08:28:35.320Z,76.20
2022-10-16T08:31:11.131Z,73.70
2022-10-16T08:33:41.663Z,66.80
2022-10-16T08:36:11.116Z,65.00
2022-10-16T08:38:39.274Z,62.70
2022-10-16T08:41:45.222Z,62.00
2022-10-16T08:44:55.651Z,59.70
2022-10-16T08:47:36.758Z,57.70
2022-10-16T08:50:12.869Z,57.50
2022-10-16T08:52:43.110Z,54.60
2022-10-16T08:55:38.460Z,55.20
2022-10-16T08:58:20.402Z,53.00
2022-10-16T09:00:56.875Z,50.80
2022-10-16T09:03:46.902Z,51.30
2022-10-16T09:06:47.391Z,49.60
2022-10-16T09:09:20.620Z,47.90
2022-10-16T09:11:50.842Z,47.90
2022-10-16T09:14:44.307Z,48.40
2022-10-16T09:17:31.099Z,46.00
2022-10-16T09:20:23.860Z,47.20
2022-10-16T09:22:58.055Z,45.60
2022-10-16T09:25:25.251Z,46.60
2022-10-16T09:27:55.111Z,45.90
2022-10-16T09:30:23.935Z,45.10
2022-10-16T09:32:53.752Z,44.00
2022-10-16T09:35:25.753Z,45.00
2022-10-16T09:37:54.646Z,45.60
2022-10-16T09:40:38.107Z,42.80
2022-10-16T09:43:24.325Z,39.60
2022-10-16T09:46:09.375Z,39.50
2022-10-16T09:48:49.563Z,41.70
2022-10-16T09:51:24.236Z,40.00
2022-10-16T09:53:56.987Z,38.50
2022-10-16T09:56:36.520Z,39.10
2022-10-16T09:59:14.738Z,39.70
2022-10-16T10:01:53.396Z,39.90
2022-10-16T10:04:22.391Z,36.20
2022-10-16T10:06:53.996Z,38.30
2022-10-16T10:09:36.275Z,39.20
2022-10-16T10:12:05.433Z,36.50
2022-10-16T10:14:39.172Z,38.30
2022-10-16T10:17:06.272Z,37.40
2022-10-16T10:19:48.826Z,38.20
2022-10-16T10:22:26.601Z,35.30
2022-10-16T10:25:13.914Z,35.60
2022-10-16T10:28:18.932Z,37.20
2022-10-16T10:31:13.963Z,34.40
2022-10-16T10:33:53.074Z,34.30
2022-10-16T10:36:37.820Z,36.00
2022-10-16T10:42:29.103Z,35.60
2022-10-16T10:45:05.349Z,33.10
2022-10-16T10:47:57.622Z,33.20
2022-10-16T10:50:46.636Z,33.20
2022-10-16T10:53:35.130Z,31.20
2022-10-16T10:56:43.934Z,34.60
2022-10-16T10:59:16.635Z,32.30
2022-10-16T11:02:10.849Z,30.50
2022-10-16T11:05:16.621Z,30.20
2022-10-16T11:07:57.926Z,30.90
2022-10-16T11:10:58.798Z,33.20
2022-10-16T11:13:37.626Z,30.00
2022-10-16T11:16:21.540Z,31.00
2022-10-16T11:18:56.215Z,29.20
2022-10-16T11:21:28.808Z,30.00
2022-10-16T11:24:04.351Z,30.60
2022-10-16T11:26:43.270Z,31.10
2022-10-16T11:29:19.542Z,31.50
2022-10-16T11:31:54.320Z,32.10
2022-10-16T11:34:24.213Z,31.10
2022-10-16T11:36:54.296Z,29.90
2022-10-16T11:39:27.971Z,29.70
2022-10-16T11:42:13.228Z,28.30
2022-10-16T11:45:07.942Z,29.40
2022-10-16T11:48:00.254Z,28.80
2022-10-16T11:50:42.987Z,30.10
2022-10-16T11:53:12.826Z,27.80
2022-10-16T11:55:46.976Z,28.20
2022-10-16T11:58:25.392Z,32.10
2022-10-16T12:00:57.592Z,28.10
2022-10-16T12:03:30.804Z,30.00
2022-10-16T12:06:25.457Z,30.70
2022-10-16T12:08:54.556Z,29.00
2022-10-16T12:11:24.748Z,31.70
2022-10-16T12:13:53.411Z,29.80
2022-10-16T12:16:25.094Z,30.90
2022-10-16T12:19:10.251Z,31.00
2022-10-16T12:21:37.717Z,29.20
2022-10-16T12:24:06.077Z,30.70
2022-10-16T12:26:39.059Z,30.00
2022-10-16T12:29:40.419Z,30.00
2022-10-16T12:32:51.773Z,28.70
2022-10-16T12:35:28.382Z,28.60
2022-10-16T12:38:05.562Z,30.20
2022-10-16T12:40:35.568Z,29.60
2022-10-16T12:43:14.070Z,29.10
2022-10-16T12:45:41.364Z,29.50
2022-10-16T12:48:21.699Z,28.30
2022-10-16T12:50:48.923Z,28.70
2022-10-16T12:53:27.351Z,27.50
2022-10-16T12:56:21.244Z,27.30
2022-10-16T12:59:29.574Z,26.20
2022-10-16T13:02:24.062Z,26.40
2022-10-16T13:05:09.786Z,26.60
2022-10-16T13:08:02.206Z,26.30
2022-10-16T13:10:42.016Z,25.40
2022-10-16T13:13:12.014Z,26.80
2022-10-16T13:16:16.845Z,26.50
2022-10-16T13:18:44.058Z,24.80
2022-10-16T13:21:26.927Z,26.20
2022-10-16T13:24:22.709Z,24.40
2022-10-16T13:27:26.474Z,24.10
2022-10-16T13:30:01.255Z,23.60
2022-10-16T13:32:29.110Z,23.50
2022-10-16T13:34:56.707Z,23.30
2022-10-16T13:37:25.634Z,22.50
2022-10-16T13:40:08.649Z,22.10
2022-10-16T13:42:35.931Z,22.10
2022-10-16T13:45:03.049Z,22.40
2022-10-16T13:47:31.270Z,22.00
2022-10-16T13:50:10.255Z,22.30
2022-10-16T13:52:38.194Z,22.20
2022-10-16T13:55:16.720Z,22.50
2022-10-16T13:57:44.270Z,22.10
2022-10-16T14:00:33.247Z,22.30
2022-10-16T14:03:05.567Z,22.20
2022-10-16T14:05:33.237Z,22.10
2022-10-16T14:08:01.231Z,21.20
2022-10-16T14:10:33.416Z,20.60
2022-10-16T14:13:06.147Z,21.00
2022-10-16T14:15:35.658Z,20.90
2022-10-16T14:18:03.670Z,19.70
2022-10-16T14:20:34.135Z,20.00
2022-10-16T14:23:20.025Z,19.70
2022-10-16T14:25:47.685Z,20.10
2022-10-16T14:28:23.023Z,19.00
2022-10-16T14:30:59.011Z,19.50
2022-10-16T14:33:29.803Z,19.20
2022-10-16T14:36:14.314Z,19.30
2022-10-16T14:38:48.644Z,18.60
2022-10-16T14:41:16.423Z,19.00
2022-10-16T14:43:47.480Z,18.00
2022-10-16T14:49:00.866Z,17.40
2022-10-16T14:51:28.586Z,17.90
2022-10-16T14:54:00.021Z,17.20
2022-10-16T14:56:33.267Z,17.80
2022-10-16T14:59:01.783Z,16.90
2022-10-16T15:01:28.894Z,16.80
2022-10-16T15:03:56.222Z,16.50
2022-10-16T15:06:23.469Z,17.10
2022-10-16T15:08:50.633Z,15.70
2022-10-16T15:11:19.939Z,16.00
2022-10-16T15:13:47.643Z,16.20
2022-10-16T15:16:17.473Z,15.50
2022-10-16T15:18:44.641Z,15.50
2022-10-16T15:21:37.832Z,15.00
2022-10-16T15:24:14.297Z,14.20
2022-10-16T15:26:44.011Z,14.70
2022-10-16T15:29:11.148Z,14.40
2022-10-16T15:31:38.518Z,13.70
2022-10-16T15:34:06.982Z,13.80
2022-10-16T15:36:37.696Z,14.00
2022-10-16T15:39:23.032Z,13.90
2022-10-16T15:41:52.307Z,26.40
2022-10-16T15:44:20.879Z,12.30
2022-10-16T15:46:48.505Z,11.20
2022-10-16T15:49:15.899Z,11.10
2022-10-16T15:51:43.685Z,11.30
2022-10-16T15:54:10.965Z,11.70
2022-10-16T15:56:38.364Z,10.80
2022-10-16T15:59:06.255Z,10.90
2022-10-16T16:01:37.142Z,10.50
2022-10-16T16:04:10.832Z,11.20
2022-10-16T16:06:45.813Z,11.10
2022-10-16T16:09:14.710Z,12.20
2022-10-16T16:11:42.966Z,11.00
2022-10-16T16:14:16.553Z,11.30
2022-10-16T16:16:43.819Z,11.70
2022-10-16T16:19:11.844Z,11.70
2022-10-16T16:21:39.583Z,12.60
2022-10-16T16:24:09.409Z,12.60
2022-10-16T16:26:40.467Z,13.20
2022-10-16T16:29:10.061Z,13.40
2022-10-16T16:31:37.872Z,14.10
2022-10-16T16:34:05.550Z,14.90
2022-10-16T16:36:33.003Z,15.00
2022-10-16T16:39:00.266Z,15.10
2022-10-16T16:41:29.488Z,14.90
2022-10-16T16:44:01.896Z,14.90
2022-10-16T16:46:29.011Z,15.40
2022-10-16T16:48:56.563Z,15.90
2022-10-16T16:51:23.747Z,17.20
2022-10-16T16:53:53.087Z,17.80
2022-10-16T16:56:21.639Z,20.20
2022-10-16T16:58:50.173Z,20.30
2022-10-16T17:01:20.687Z,23.40
2022-10-16T17:03:51.212Z,24.20
2022-10-16T17:06:21.090Z,25.40
2022-10-16T17:08:50.619Z,26.10
2022-10-16T17:11:27.154Z,25.50
2022-10-16T17:13:56.976Z,25.20
2022-10-16T17:16:33.614Z,24.30
2022-10-16T17:19:03.470Z,24.60
2022-10-16T17:21:32.802Z,24.60
2022-10-16T17:24:01.063Z,25.30
2022-10-16T17:26:28.846Z,26.50
2022-10-16T17:28:58.397Z,29.20
2022-10-16T17:31:29.456Z,29.90
2022-10-16T17:33:57.796Z,32.60
2022-10-16T17:36:25.612Z,35.00
2022-10-16T17:38:52.802Z,37.40
2022-10-16T17:41:23.076Z,39.50
2022-10-16T17:43:51.751Z,41.90
2022-10-16T17:46:22.241Z,40.20
2022-10-16T17:48:51.556Z,40.40
2022-10-16T17:51:20.708Z,40.10
2022-10-16T17:53:56.529Z,40.30
2022-10-16T17:56:25.378Z,39.40
2022-10-16T17:58:54.975Z,39.70
2022-10-16T18:01:25.052Z,42.60
2022-10-16T18:03:54.535Z,45.70
2022-10-16T18:06:22.986Z,49.80
2022-10-16T18:08:51.873Z,52.50
2022-10-16T18:11:20.411Z,55.40
2022-10-16T18:13:48.223Z,58.30
2022-10-16T18:16:16.233Z,58.30
2022-10-16T18:18:47.947Z,58.40
2022-10-16T18:21:17.603Z,58.40
2022-10-16T18:23:50.786Z,62.30
2022-10-16T18:26:20.850Z,64.00
2022-10-16T18:28:49.199Z,64.80
2022-10-16T18:31:17.634Z,67.00
2022-10-16T18:33:50.246Z,71.80
2022-10-16T18:36:30.396Z,76.60
2022-10-16T18:38:58.568Z,87.20
2022-10-16T18:41:26.902Z,86.40
2022-10-16T18:43:54.789Z,87.50
2022-10-16T18:46:25.944Z,89.30
2022-10-16T18:48:54.422Z,82.80
2022-10-16T18:51:36.169Z,84.80
2022-10-16T18:54:09.071Z,84.10
2022-10-16T18:56:36.373Z,87.90
2022-10-16T18:59:06.314Z,89.50
2022-10-16T19:01:36.011Z,91.30
2022-10-16T19:04:06.531Z,94.90
2022-10-16T19:06:36.775Z,95.90
2022-10-16T19:09:05.096Z,98.70
2022-10-16T19:11:34.127Z,98.50
2022-10-16T19:14:06.360Z,97.20
2022-10-16T19:16:35.817Z,95.60
2022-10-16T19:19:07.225Z,95.00
2022-10-16T19:21:37.091Z,95.50
2022-10-16T19:24:04.693Z,96.10
2022-10-16T19:26:34.791Z,99.90
2022-10-16T19:29:05.296Z,99.90
2022-10-16T19:31:33.004Z,99.90
2022-10-16T19:34:03.284Z,99.90
2022-10-16T19:36:35.796Z,99.90
2022-10-16T19:39:08.588Z,99.90
2022-10-16T19:41:37.574Z,99.90
2022-10-16T19:44:07.608Z,99.90
2022-10-16T19:46:35.961Z,99.90
2022-10-16T19:49:06.119Z,99.90
2022-10-16T19:51:34.048Z,99.90
2022-10-16T19:54:06.998Z,99.90
2022-10-16T19:56:35.292Z,99.90
2022-10-16T19:59:03.294Z,99.90
2022-10-16T20:01:31.927Z,99.90
2022-10-16T20:03:59.566Z,99.90
2022-10-16T20:06:26.836Z,99.90
2022-10-16T20:08:55.426Z,99.90
2022-10-16T20:11:25.374Z,99.90
2022-10-16T20:13:52.520Z,99.90
2022-10-16T20:16:20.377Z,99.90
2022-10-16T20:18:49.707Z,99.90
2022-10-16T20:21:19.335Z,99.90
2022-10-16T20:23:48.692Z,99.90
2022-10-16T20:26:16.867Z,99.90
2022-10-16T20:28:44.692Z,99.90
2022-10-16T20:31:18.232Z,99.90
2022-10-16T20:33:45.768Z,99.90
2022-10-16T20:36:15.118Z,99.90
2022-10-16T20:38:43.069Z,99.90
2022-10-16T20:41:11.149Z,99.90
2022-10-16T20:46:20.196Z,99.90
2022-10-16T20:48:47.638Z,99.90
2022-10-16T20:51:29.343Z,99.90
2022-10-16T20:53:58.700Z,99.90
2022-10-16T20:56:27.941Z,99.90
2022-10-16T20:58:55.107Z,99.90
2022-10-16T21:01:25.464Z,99.90
2022-10-16T21:03:58.767Z,99.90
2022-10-16T21:06:26.596Z,99.90
2022-10-16T21:08:53.875Z,99.90
2022-10-16T21:11:24.072Z,99.90
2022-10-16T21:13:58.551Z,99.90
2022-10-16T21:16:26.653Z,99.90
2022-10-16T21:18:54.361Z,99.90
2022-10-16T21:21:28.551Z,99.90
2022-10-16T21:23:57.476Z,99.90
2022-10-16T21:26:26.541Z,99.90
2022-10-16T21:28:58.618Z,99.90
2022-10-16T21:31:26.291Z,99.90
2022-10-16T21:33:55.262Z,99.90
2022-10-16T21:36:28.573Z,99.90
2022-10-16T21:38:56.672Z,99.90
2022-10-16T21:41:28.848Z,99.90
2022-10-16T21:43:57.171Z,99.90
2022-10-16T21:46:27.281Z,99.90
2022-10-16T21:48:55.809Z,99.90
2022-10-16T21:51:27.332Z,99.90
2022-10-16T21:53:55.017Z,1.00
2022-10-16T21:56:23.249Z,1.00
2022-10-16T21:58:50.447Z,1.00
2022-10-16T22:01:19.725Z,1.00
2022-10-16T22:03:48.011Z,1.00
2022-10-16T22:06:17.830Z,1.00
2022-10-16T22:08:47.790Z,1.00
2022-10-16T22:11:22.276Z,1.00
2022-10-16T22:13:54.154Z,1.00
2022-10-16T22:16:26.462Z,1.00
2022-10-16T22:18:55.868Z,1.00
2022-10-16T22:21:23.595Z,1.00
2022-10-16T22:23:50.928Z,1.00
2022-10-16T22:26:18.370Z,1.00
2022-10-16T22:28:45.626Z,1.00
2022-10-16T22:31:14.668Z,1.00
2022-10-16T22:33:42.188Z,1.00
2022-10-16T22:36:12.876Z,1.00
2022-10-16T22:38:40.438Z,1.00
2022-10-16T22:41:13.355Z,1.00
2022-10-16T22:43:45.239Z,1.00
2022-10-16T22:46:15.623Z,1.00
2022-10-16T22:48:43.570Z,1.00
2022-10-16T22:51:16.578Z,1.00
2022-10-16T22:53:46.041Z,1.00
2022-10-16T22:56:14.868Z,1.00
2022-10-16T22:58:42.290Z,1.00
2022-10-16T23:01:20.182Z,1.00
2022-10-16T23:03:47.411Z,30.50
2022-10-16T23:06:15.140Z,99.90
2022-10-16T23:08:42.323Z,99.90
2022-10-16T23:11:14.126Z,1.00
2022-10-16T23:13:45.684Z,1.00
2022-10-16T23:16:15.794Z,1.00
2022-10-16T23:18:44.435Z,1.00
2022-10-16T23:21:18.702Z,1.00
2022-10-16T23:23:45.907Z,1.00
2022-10-16T23:26:21.909Z,1.00
2022-10-16T23:28:49.434Z,1.00
2022-10-16T23:31:17.852Z,1.00
2022-10-16T23:33:45.579Z,1.00
2022-10-16T23:36:19.536Z,1.00
2022-10-16T23:38:48.084Z,1.00
2022-10-16T23:41:16.122Z,1.00
2022-10-16T23:43:43.224Z,1.00
2022-10-16T23:46:11.650Z,1.00
2022-10-16T23:48:39.714Z,1.00
2022-10-16T23:51:08.182Z,1.00
2022-10-16T23:53:35.503Z,1.00
2022-10-16T23:56:03.345Z,7.10
2022-10-16T23:58:30.941Z,13.30
